Fire Weather Observation
Issued by NWS Grand Junction, CO

Home | Current Version | Previous Version | Graphics & Text | Print | Product List | Glossary On
Versions: 1 2 3 4 5 6 7 8 9 10 11 12 13 14 15 16 17 18 19 20 21 22 23 24 25 26 27 28
000
SHUS65 KGJT 172017
FWOGJT

DAILY FIRE WEATHER OBSERVATION
NATIONAL WEATHER SERVICE GRAND JUNCTION CO
212 PM MDT MON JUL 17 2017

STATE OF THE WEATHER (W)               1
DRY BULB TEMPERATURE                   95   DEGREES FAHRENHEIT
RELATIVE HUMIDITY (RH)                 16   PERCENT
LIGHTNING ACTIVITY LEVEL
  (LAL - MIDNIGHT TO 2 PM)             2
WIND DIRECTION                         225  DEGREES (C IF CALM)
WIND SPEED                             7    MPH
MAX TEMP (2 PM - 2 PM)                 99   DEGREES FAHRENHEIT
MIN TEMP (2 PM - 2 PM)                 71   DEGREES FAHRENHEIT
MAX RH (2 PM - 2 PM)                   44   PERCENT
MIN RH (2 PM - 2 PM)                   14   PERCENT
PCPN DURATION                          0.0  HOURS
PCPN AMT (2 PM - 2 PM)                 0.0  INCHES
LAL (2 PM - 2 PM)                      2

$$

METAR KGJT 171953Z 24006KT 10SM CLR 35/05 A3001 RMK AO2 LTG DSNT
      E AND S SLP076 CB DSNT ALQDS T03500050



USA.gov is the U.S. government's official web portal to all federal, state and local government web resources and services.